Ashley, Michigan
Current Conditions -  °F | °C
As of 9:55 PM on Monday 22 Dec 2014 (Local Time) from KAMN Reporting Station
Moderate Rain Moderate Rain  
Wind Chill: 25°   Ceiling: 4200
Heat Index: 33°   Visibility: 5mi
Dew Point: 32°   Wind: 9mph
Humidity: 96%   Direction: 60°ENE
Pressure: 29.88"   Gusts: NA
Location:  43.19°N, 84.47°W
Report Text: KAMN 230255Z AUTO 06008KT 5SM RA OVC042 01/00 A2988 RMK AO2 T00050000
Loading
Personal Weather Stations






























Interactive Weather Map New forecast layout! Learn more

10-Day Weather Forecast

Advertisements
Track Severe Weather on mobile